sensor_id;sensor_type;location;lat;lon;timestamp;pressure;altitude;pressure_sealevel;temperature;humidity
61908;BME280;47864;52.526;19.672;2023-01-25T00:00:04;103145.84;;;-0.88;100.00
61908;BME280;47864;52.526;19.672;2023-01-25T00:02:06;103145.03;;;-0.91;100.00
61908;BME280;47864;52.526;19.672;2023-01-25T00:04:08;103148.50;;;-0.95;100.00
61908;BME280;47864;52.526;19.672;2023-01-25T00:06:10;103150.09;;;-0.81;100.00
61908;BME280;47864;52.526;19.672;2023-01-25T00:08:11;103152.84;;;-0.94;100.00
61908;BME280;47864;52.526;19.672;2023-01-25T00:10:13;103160.00;;;-1.18;100.00
61908;BME280;47864;52.526;19.672;2023-01-25T00:12:15;103152.00;;;-0.98;100.00
61908;BME280;47864;52.526;19.672;2023-01-25T00:14:16;103152.78;;;-0.88;100.00
61908;BME280;47864;52.526;19.672;2023-01-25T00:16:18;103144.94;;;-0.84;100.00
61908;BME280;47864;52.526;19.672;2023-01-25T00:18:19;103144.09;;;-0.89;100.00
61908;BME280;47864;52.526;19.672;2023-01-25T00:20:21;103141.41;;;-0.78;100.00
61908;BME280;47864;52.526;19.672;2023-01-25T00:22:23;103138.88;;;-0.84;100.00
61908;BME280;47864;52.526;19.672;2023-01-25T00:24:24;103140.63;;;-0.88;100.00
61908;BME280;47864;52.526;19.672;2023-01-25T00:26:29;103137.94;;;-0.80;100.00
61908;BME280;47864;52.526;19.672;2023-01-25T00:28:30;103130.28;;;-0.95;100.00
61908;BME280;47864;52.526;19.672;2023-01-25T00:30:32;103130.28;;;-0.97;100.00
61908;BME280;47864;52.526;19.672;2023-01-25T00:32:52;103107.88;;;-1.13;100.00
61908;BME280;47864;52.526;19.672;2023-01-25T00:34:58;103120.78;;;-0.99;100.00
61908;BME280;47864;52.526;19.672;2023-01-25T00:39:11;103119.75;;;-0.85;100.00
61908;BME280;47864;52.526;19.672;2023-01-25T00:41:13;103123.06;;;-0.70;100.00
61908;BME280;47864;52.526;19.672;2023-01-25T00:43:15;103122.34;;;-0.83;100.00
61908;BME280;47864;52.526;19.672;2023-01-25T00:45:16;103120.72;;;-0.93;100.00
61908;BME280;47864;52.526;19.672;2023-01-25T00:47:18;103122.41;;;-0.89;100.00
61908;BME280;47864;52.526;19.672;2023-01-25T00:49:22;103124.13;;;-0.88;100.00
61908;BME280;47864;52.526;19.672;2023-01-25T00:51:24;103114.63;;;-0.91;100.00
61908;BME280;47864;52.526;19.672;2023-01-25T00:53:26;103110.38;;;-1.02;100.00
61908;BME280;47864;52.526;19.672;2023-01-25T00:55:27;103110.38;;;-0.99;100.00
61908;BME280;47864;52.526;19.672;2023-01-25T00:57:29;103107.81;;;-1.07;100.00
61908;BME280;47864;52.526;19.672;2023-01-25T00:59:30;103105.41;;;-1.24;100.00
61908;BME280;47864;52.526;19.672;2023-01-25T01:01:33;103098.38;;;-1.19;100.00
61908;BME280;47864;52.526;19.672;2023-01-25T01:03:35;103095.00;;;-1.30;100.00
61908;BME280;47864;52.526;19.672;2023-01-25T01:05:37;103088.78;;;-1.12;100.00
61908;BME280;47864;52.526;19.672;2023-01-25T01:07:38;103095.63;;;-1.03;100.00
61908;BME280;47864;52.526;19.672;2023-01-25T01:09:40;103106.97;;;-1.07;100.00
61908;BME280;47864;52.526;19.672;2023-01-25T01:11:42;103090.81;;;-1.43;100.00
61908;BME280;47864;52.526;19.672;2023-01-25T01:13:43;103097.63;;;-1.30;100.00
61908;BME280;47864;52.526;19.672;2023-01-25T01:15:45;103101.88;;;-1.23;100.00
61908;BME280;47864;52.526;19.672;2023-01-25T01:17:46;103092.38;;;-1.24;100.00
61908;BME280;47864;52.526;19.672;2023-01-25T01:19:48;103087.81;;;-1.05;100.00
61908;BME280;47864;52.526;19.672;2023-01-25T01:21:49;103086.06;;;-1.03;100.00
61908;BME280;47864;52.526;19.672;2023-01-25T01:23:53;103086.91;;;-0.99;100.00
61908;BME280;47864;52.526;19.672;2023-01-25T01:25:55;103073.13;;;-1.09;100.00
61908;BME280;47864;52.526;19.672;2023-01-25T01:27:59;103080.75;;;-0.92;100.00
61908;BME280;47864;52.526;19.672;2023-01-25T01:30:01;103075.47;;;-0.86;100.00
61908;BME280;47864;52.526;19.672;2023-01-25T01:32:02;103043.56;;;-1.05;100.00
61908;BME280;47864;52.526;19.672;2023-01-25T01:34:04;103072.50;;;-0.56;100.00
61908;BME280;47864;52.526;19.672;2023-01-25T01:36:07;103062.91;;;-0.52;100.00
61908;BME280;47864;52.526;19.672;2023-01-25T01:38:09;103063.78;;;-0.52;100.00
61908;BME280;47864;52.526;19.672;2023-01-25T01:40:13;103072.44;;;-0.50;100.00
61908;BME280;47864;52.526;19.672;2023-01-25T01:42:15;103062.94;;;-0.54;100.00
61908;BME280;47864;52.526;19.672;2023-01-25T01:44:19;103065.75;;;-0.72;100.00
61908;BME280;47864;52.526;19.672;2023-01-25T01:46:23;103056.06;;;-0.61;100.00
61908;BME280;47864;52.526;19.672;2023-01-25T01:48:39;103057.47;;;-0.35;100.00
61908;BME280;47864;52.526;19.672;2023-01-25T01:50:42;103048.91;;;-0.44;100.00
61908;BME280;47864;52.526;19.672;2023-01-25T01:52:44;103049.88;;;-0.51;100.00
61908;BME280;47864;52.526;19.672;2023-01-25T01:54:48;103048.84;;;-0.41;100.00
61908;BME280;47864;52.526;19.672;2023-01-25T01:57:04;103052.41;;;-0.46;100.00
61908;BME280;47864;52.526;19.672;2023-01-25T01:59:08;103048.25;;;-0.62;100.00
61908;BME280;47864;52.526;19.672;2023-01-25T02:01:10;103048.25;;;-0.62;100.00
61908;BME280;47864;52.526;19.672;2023-01-25T02:03:12;103046.53;;;-0.63;100.00
61908;BME280;47864;52.526;19.672;2023-01-25T02:07:39;103047.69;;;-0.87;100.00
61908;BME280;47864;52.526;19.672;2023-01-25T02:09:40;103049.56;;;-0.98;100.00
61908;BME280;47864;52.526;19.672;2023-01-25T02:11:44;103044.22;;;-0.88;100.00
61908;BME280;47864;52.526;19.672;2023-01-25T02:13:47;103044.75;;;-0.58;100.00
61908;BME280;47864;52.526;19.672;2023-01-25T02:15:50;103048.97;;;-0.50;100.00
61908;BME280;47864;52.526;19.672;2023-01-25T02:17:52;103051.94;;;-0.77;100.00
61908;BME280;47864;52.526;19.672;2023-01-25T02:23:10;103048.44;;;-0.74;100.00
61908;BME280;47864;52.526;19.672;2023-01-25T02:25:17;103048.44;;;-0.74;100.00
61908;BME280;47864;52.526;19.672;2023-01-25T02:27:19;103048.44;;;-0.76;100.00
61908;BME280;47864;52.526;19.672;2023-01-25T02:29:21;103048.47;;;-0.81;100.00
61908;BME280;47864;52.526;19.672;2023-01-25T02:31:24;103042.19;;;-0.63;100.00
61908;BME280;47864;52.526;19.672;2023-01-25T02:33:27;103010.13;;;-0.69;100.00
61908;BME280;47864;52.526;19.672;2023-01-25T02:35:41;103016.31;;;-0.78;100.00
61908;BME280;47864;52.526;19.672;2023-01-25T02:37:44;103042.19;;;-0.64;100.00
61908;BME280;47864;52.526;19.672;2023-01-25T02:39:45;103042.06;;;-0.54;100.00
61908;BME280;47864;52.526;19.672;2023-01-25T02:41:47;103033.63;;;-0.72;100.00
61908;BME280;47864;52.526;19.672;2023-01-25T02:43:49;103011.88;;;-0.70;100.00
61908;BME280;47864;52.526;19.672;2023-01-25T02:45:56;103024.16;;;-0.81;100.00
61908;BME280;47864;52.526;19.672;2023-01-25T02:47:59;103037.28;;;-0.90;100.00
61908;BME280;47864;52.526;19.672;2023-01-25T02:50:02;103029.53;;;-0.92;100.00
61908;BME280;47864;52.526;19.672;2023-01-25T02:52:04;103029.63;;;-0.99;100.00
61908;BME280;47864;52.526;19.672;2023-01-25T02:54:08;103026.81;;;-0.83;100.00
61908;BME280;47864;52.526;19.672;2023-01-25T02:56:10;103025.59;;;-0.57;100.00
61908;BME280;47864;52.526;19.672;2023-01-25T02:58:11;103013.31;;;-0.49;100.00
61908;BME280;47864;52.526;19.672;2023-01-25T03:00:13;103020.53;;;-0.68;100.00
61908;BME280;47864;52.526;19.672;2023-01-25T03:02:15;103015.16;;;-0.57;100.00
61908;BME280;47864;52.526;19.672;2023-01-25T03:04:17;103015.34;;;-0.69;100.00
61908;BME280;47864;52.526;19.672;2023-01-25T03:06:18;103018.91;;;-0.75;100.00
61908;BME280;47864;52.526;19.672;2023-01-25T03:08:20;103005.03;;;-0.79;100.00
61908;BME280;47864;52.526;19.672;2023-01-25T03:10:22;103006.88;;;-0.88;100.00
61908;BME280;47864;52.526;19.672;2023-01-25T03:12:23;103006.19;;;-1.02;100.00
61908;BME280;47864;52.526;19.672;2023-01-25T03:14:25;103001.97;;;-1.14;100.00
61908;BME280;47864;52.526;19.672;2023-01-25T03:16:27;103006.38;;;-1.19;100.00
61908;BME280;47864;52.526;19.672;2023-01-25T03:18:29;103008.03;;;-1.10;100.00
61908;BME280;47864;52.526;19.672;2023-01-25T03:20:30;103007.19;;;-1.12;100.00
61908;BME280;47864;52.526;19.672;2023-01-25T03:22:32;103006.22;;;-1.05;100.00
61908;BME280;47864;52.526;19.672;2023-01-25T03:24:33;103000.91;;;-0.95;100.00
61908;BME280;47864;52.526;19.672;2023-01-25T03:26:35;102997.44;;;-0.95;100.00
61908;BME280;47864;52.526;19.672;2023-01-25T03:28:37;102969.63;;;-0.93;100.00
61908;BME280;47864;52.526;19.672;2023-01-25T03:30:39;102989.47;;;-0.83;100.00
61908;BME280;47864;52.526;19.672;2023-01-25T03:32:40;102991.03;;;-0.68;100.00
61908;BME280;47864;52.526;19.672;2023-01-25T03:34:42;102986.50;;;-0.57;100.00
61908;BME280;47864;52.526;19.672;2023-01-25T03:36:44;102985.03;;;-0.75;100.00
61908;BME280;47864;52.526;19.672;2023-01-25T03:38:45;102979.97;;;-0.87;100.00
61908;BME280;47864;52.526;19.672;2023-01-25T03:40:47;102972.88;;;-0.74;100.00
61908;BME280;47864;52.526;19.672;2023-01-25T03:42:49;102969.44;;;-0.81;100.00
61908;BME280;47864;52.526;19.672;2023-01-25T03:44:50;102960.22;;;-1.06;100.00
61908;BME280;47864;52.526;19.672;2023-01-25T03:46:52;102956.59;;;-0.93;100.00
61908;BME280;47864;52.526;19.672;2023-01-25T03:48:54;102952.19;;;-0.90;100.00
61908;BME280;47864;52.526;19.672;2023-01-25T03:50:58;102946.81;;;-0.76;100.00
61908;BME280;47864;52.526;19.672;2023-01-25T03:52:59;102945.75;;;-0.63;100.00
61908;BME280;47864;52.526;19.672;2023-01-25T03:55:01;102943.28;;;-0.72;100.00
61908;BME280;47864;52.526;19.672;2023-01-25T03:57:03;102939.88;;;-0.77;100.00
61908;BME280;47864;52.526;19.672;2023-01-25T03:59:05;102921.69;;;-0.82;100.00
61908;BME280;47864;52.526;19.672;2023-01-25T04:01:07;102937.41;;;-0.88;100.00
61908;BME280;47864;52.526;19.672;2023-01-25T04:03:09;102937.47;;;-0.91;100.00
61908;BME280;47864;52.526;19.672;2023-01-25T04:05:11;102936.47;;;-0.82;100.00
61908;BME280;47864;52.526;19.672;2023-01-25T04:07:12;102936.28;;;-0.68;100.00
61908;BME280;47864;52.526;19.672;2023-01-25T04:09:14;102924.78;;;-0.55;100.00
61908;BME280;47864;52.526;19.672;2023-01-25T04:11:16;102935.13;;;-0.49;100.00
61908;BME280;47864;52.526;19.672;2023-01-25T04:13:18;102943.16;;;-0.63;100.00
61908;BME280;47864;52.526;19.672;2023-01-25T04:15:20;102931.84;;;-0.62;100.00
61908;BME280;47864;52.526;19.672;2023-01-25T04:17:22;102934.31;;;-0.51;100.00
61908;BME280;47864;52.526;19.672;2023-01-25T04:19:23;102937.03;;;-0.60;100.00
61908;BME280;47864;52.526;19.672;2023-01-25T04:21:25;102930.00;;;-0.55;100.00
61908;BME280;47864;52.526;19.672;2023-01-25T04:23:26;102927.25;;;-0.46;100.00
61908;BME280;47864;52.526;19.672;2023-01-25T04:25:28;102931.69;;;-0.50;100.00
61908;BME280;47864;52.526;19.672;2023-01-25T04:27:30;102924.06;;;-0.65;100.00
61908;BME280;47864;52.526;19.672;2023-01-25T04:29:31;102916.19;;;-0.60;100.00
61908;BME280;47864;52.526;19.672;2023-01-25T04:31:42;102921.44;;;-0.63;100.00
61908;BME280;47864;52.526;19.672;2023-01-25T04:33:43;102927.75;;;-0.81;100.00
61908;BME280;47864;52.526;19.672;2023-01-25T04:35:45;102926.88;;;-0.79;100.00
61908;BME280;47864;52.526;19.672;2023-01-25T04:37:57;102922.44;;;-0.72;100.00
61908;BME280;47864;52.526;19.672;2023-01-25T04:39:59;102922.50;;;-0.75;100.00
61908;BME280;47864;52.526;19.672;2023-01-25T04:42:01;102923.94;;;-0.57;100.00
61908;BME280;47864;52.526;19.672;2023-01-25T04:44:03;102927.53;;;-0.64;100.00
61908;BME280;47864;52.526;19.672;2023-01-25T04:46:04;102924.91;;;-0.64;100.00
61908;BME280;47864;52.526;19.672;2023-01-25T04:48:08;102915.19;;;-0.52;100.00
61908;BME280;47864;52.526;19.672;2023-01-25T04:50:10;102912.53;;;-0.49;100.00
61908;BME280;47864;52.526;19.672;2023-01-25T04:52:11;102911.00;;;-0.62;100.00
61908;BME280;47864;52.526;19.672;2023-01-25T04:54:13;102905.88;;;-0.66;100.00
61908;BME280;47864;52.526;19.672;2023-01-25T04:56:15;102904.06;;;-0.63;100.00
61908;BME280;47864;52.526;19.672;2023-01-25T04:58:16;102908.28;;;-0.54;100.00
61908;BME280;47864;52.526;19.672;2023-01-25T05:00:18;102901.34;;;-0.57;100.00
61908;BME280;47864;52.526;19.672;2023-01-25T05:02:20;102909.00;;;-0.46;100.00
61908;BME280;47864;52.526;19.672;2023-01-25T05:04:22;102906.44;;;-0.49;100.00
61908;BME280;47864;52.526;19.672;2023-01-25T05:06:24;102920.63;;;-0.67;100.00
61908;BME280;47864;52.526;19.672;2023-01-25T05:08:25;102917.06;;;-0.60;100.00
61908;BME280;47864;52.526;19.672;2023-01-25T05:10:27;102912.81;;;-0.67;100.00
61908;BME280;47864;52.526;19.672;2023-01-25T05:12:28;102912.50;;;-0.47;100.00
61908;BME280;47864;52.526;19.672;2023-01-25T05:14:30;102907.44;;;-0.56;100.00
61908;BME280;47864;52.526;19.672;2023-01-25T05:16:32;102913.34;;;-0.45;100.00
61908;BME280;47864;52.526;19.672;2023-01-25T05:18:33;102911.38;;;-0.32;100.00
61908;BME280;47864;52.526;19.672;2023-01-25T05:20:55;102904.66;;;-0.44;100.00
61908;BME280;47864;52.526;19.672;2023-01-25T05:22:56;102901.91;;;-0.36;100.00
61908;BME280;47864;52.526;19.672;2023-01-25T05:24:58;102892.88;;;-0.71;100.00
61908;BME280;47864;52.526;19.672;2023-01-25T05:27:00;102900.59;;;-0.63;100.00
61908;BME280;47864;52.526;19.672;2023-01-25T05:29:02;102903.75;;;-0.43;100.00
61908;BME280;47864;52.526;19.672;2023-01-25T05:31:04;102905.50;;;-0.44;100.00
61908;BME280;47864;52.526;19.672;2023-01-25T05:33:05;102908.28;;;-0.56;100.00
61908;BME280;47864;52.526;19.672;2023-01-25T05:35:07;102907.41;;;-0.55;100.00
61908;BME280;47864;52.526;19.672;2023-01-25T05:37:12;102907.09;;;-0.35;100.00
61908;BME280;47864;52.526;19.672;2023-01-25T05:39:13;102916.59;;;-0.31;100.00
61908;BME280;47864;52.526;19.672;2023-01-25T05:41:15;102914.69;;;-0.21;100.00
61908;BME280;47864;52.526;19.672;2023-01-25T05:43:16;102899.94;;;-0.22;100.00
61908;BME280;47864;52.526;19.672;2023-01-25T05:45:18;102899.03;;;-0.20;100.00
61908;BME280;47864;52.526;19.672;2023-01-25T05:47:20;102896.19;;;-0.06;100.00
61908;BME280;47864;52.526;19.672;2023-01-25T05:49:21;102898.78;;;-0.06;100.00
61908;BME280;47864;52.526;19.672;2023-01-25T05:51:23;102896.41;;;-0.18;100.00
61908;BME280;47864;52.526;19.672;2023-01-25T05:53:26;102897.94;;;-0.08;100.00
61908;BME280;47864;52.526;19.672;2023-01-25T05:55:27;102893.56;;;-0.06;100.00
61908;BME280;47864;52.526;19.672;2023-01-25T05:57:29;102892.72;;;-0.07;100.00
61908;BME280;47864;52.526;19.672;2023-01-25T05:59:30;102890.50;;;-0.29;100.00
61908;BME280;47864;52.526;19.672;2023-01-25T06:01:32;102889.78;;;-0.39;100.00
61908;BME280;47864;52.526;19.672;2023-01-25T06:03:34;102888.88;;;-0.36;100.00
61908;BME280;47864;52.526;19.672;2023-01-25T06:05:35;102885.31;;;-0.32;100.00
61908;BME280;47864;52.526;19.672;2023-01-25T06:07:37;102880.56;;;-0.60;100.00
61908;BME280;47864;52.526;19.672;2023-01-25T06:09:38;102863.84;;;-0.47;100.00
61908;BME280;47864;52.526;19.672;2023-01-25T06:11:43;102865.44;;;-0.40;100.00
61908;BME280;47864;52.526;19.672;2023-01-25T06:13:45;102866.59;;;-0.56;100.00
61908;BME280;47864;52.526;19.672;2023-01-25T06:15:54;102852.50;;;-0.43;100.00
61908;BME280;47864;52.526;19.672;2023-01-25T06:17:56;102863.94;;;-0.53;100.00
61908;BME280;47864;52.526;19.672;2023-01-25T06:19:58;102861.47;;;-0.62;100.00
61908;BME280;47864;52.526;19.672;2023-01-25T06:21:59;102865.97;;;-0.73;100.00
61908;BME280;47864;52.526;19.672;2023-01-25T06:24:02;102865.09;;;-0.72;100.00
61908;BME280;47864;52.526;19.672;2023-01-25T06:26:07;102857.25;;;-0.70;100.00
61908;BME280;47864;52.526;19.672;2023-01-25T06:28:09;102860.81;;;-0.74;100.00
61908;BME280;47864;52.526;19.672;2023-01-25T06:30:10;102848.94;;;-0.95;100.00
61908;BME280;47864;52.526;19.672;2023-01-25T06:32:12;102862.09;;;-1.04;100.00
61908;BME280;47864;52.526;19.672;2023-01-25T06:34:14;102869.16;;;-1.12;100.00
61908;BME280;47864;52.526;19.672;2023-01-25T06:36:18;102875.97;;;-1.02;100.00
61908;BME280;47864;52.526;19.672;2023-01-25T06:38:20;102868.94;;;-0.97;100.00
61908;BME280;47864;52.526;19.672;2023-01-25T06:40:21;102863.91;;;-1.08;100.00
61908;BME280;47864;52.526;19.672;2023-01-25T06:42:23;102863.16;;;-1.16;100.00
61908;BME280;47864;52.526;19.672;2023-01-25T06:44:25;102858.72;;;-1.09;100.00
61908;BME280;47864;52.526;19.672;2023-01-25T06:46:27;102855.03;;;-0.96;100.00
61908;BME280;47864;52.526;19.672;2023-01-25T06:48:29;102860.13;;;-0.87;100.00
61908;BME280;47864;52.526;19.672;2023-01-25T06:50:31;102861.97;;;-0.94;100.00
61908;BME280;47864;52.526;19.672;2023-01-25T06:52:32;102866.09;;;-0.81;100.00
61908;BME280;47864;52.526;19.672;2023-01-25T06:54:34;102862.50;;;-0.73;100.00
61908;BME280;47864;52.526;19.672;2023-01-25T06:56:35;102866.81;;;-0.71;100.00
61908;BME280;47864;52.526;19.672;2023-01-25T06:58:37;102864.25;;;-0.72;100.00
61908;BME280;47864;52.526;19.672;2023-01-25T07:00:39;102862.47;;;-0.70;100.00
61908;BME280;47864;52.526;19.672;2023-01-25T07:02:41;102863.31;;;-0.67;100.00
61908;BME280;47864;52.526;19.672;2023-01-25T07:04:43;102863.22;;;-0.62;100.00
61908;BME280;47864;52.526;19.672;2023-01-25T07:06:44;102860.84;;;-0.76;100.00
61908;BME280;47864;52.526;19.672;2023-01-25T07:08:46;102853.09;;;-0.82;100.00
61908;BME280;47864;52.526;19.672;2023-01-25T07:10:59;102859.84;;;-0.69;100.00
61908;BME280;47864;52.526;19.672;2023-01-25T07:13:01;102839.13;;;-0.75;100.00
61908;BME280;47864;52.526;19.672;2023-01-25T07:15:03;102861.50;;;-0.65;100.00
61908;BME280;47864;52.526;19.672;2023-01-25T07:17:05;102851.19;;;-0.71;100.00
61908;BME280;47864;52.526;19.672;2023-01-25T07:19:10;102853.63;;;-0.60;100.00
61908;BME280;47864;52.526;19.672;2023-01-25T07:21:14;102846.63;;;-0.57;100.00
61908;BME280;47864;52.526;19.672;2023-01-25T07:23:17;102849.06;;;-0.48;100.00
61908;BME280;47864;52.526;19.672;2023-01-25T07:25:19;102857.78;;;-0.49;100.00
61908;BME280;47864;52.526;19.672;2023-01-25T07:27:21;102851.59;;;-0.42;100.00
61908;BME280;47864;52.526;19.672;2023-01-25T07:29:23;102849.09;;;-0.49;100.00
61908;BME280;47864;52.526;19.672;2023-01-25T07:31:25;102842.72;;;-0.85;100.00
61908;BME280;47864;52.526;19.672;2023-01-25T07:33:27;102842.66;;;-0.82;100.00
61908;BME280;47864;52.526;19.672;2023-01-25T07:35:29;102842.59;;;-0.76;100.00
61908;BME280;47864;52.526;19.672;2023-01-25T07:37:31;102835.41;;;-0.62;100.00
61908;BME280;47864;52.526;19.672;2023-01-25T07:39:32;102832.06;;;-0.70;100.00
61908;BME280;47864;52.526;19.672;2023-01-25T07:41:34;102823.09;;;-0.52;100.00
61908;BME280;47864;52.526;19.672;2023-01-25T07:43:36;102817.03;;;-0.54;100.00
61908;BME280;47864;52.526;19.672;2023-01-25T07:45:37;102794.72;;;-0.69;100.00
61908;BME280;47864;52.526;19.672;2023-01-25T07:47:39;102815.28;;;-0.54;100.00
61908;BME280;47864;52.526;19.672;2023-01-25T07:49:40;102816.97;;;-0.50;100.00
61908;BME280;47864;52.526;19.672;2023-01-25T07:51:42;102809.25;;;-0.56;100.00
61908;BME280;47864;52.526;19.672;2023-01-25T07:53:44;102807.56;;;-0.58;100.00
61908;BME280;47864;52.526;19.672;2023-01-25T07:55:45;102811.06;;;-0.61;100.00
61908;BME280;47864;52.526;19.672;2023-01-25T07:57:47;102803.38;;;-0.68;100.00
61908;BME280;47864;52.526;19.672;2023-01-25T07:59:48;102804.22;;;-0.66;100.00
61908;BME280;47864;52.526;19.672;2023-01-25T08:01:50;102787.19;;;-0.89;100.00
61908;BME280;47864;52.526;19.672;2023-01-25T08:03:52;102787.94;;;-0.82;100.00
61908;BME280;47864;52.526;19.672;2023-01-25T08:05:54;102784.59;;;-0.89;100.00
61908;BME280;47864;52.526;19.672;2023-01-25T08:07:56;102772.31;;;-0.82;100.00
61908;BME280;47864;52.526;19.672;2023-01-25T08:09:57;102786.09;;;-0.74;100.00
61908;BME280;47864;52.526;19.672;2023-01-25T08:11:59;102777.34;;;-0.70;100.00
61908;BME280;47864;52.526;19.672;2023-01-25T08:14:01;102776.75;;;-0.87;100.00
61908;BME280;47864;52.526;19.672;2023-01-25T08:16:03;102782.91;;;-0.91;100.00
61908;BME280;47864;52.526;19.672;2023-01-25T08:18:04;102774.88;;;-0.79;100.00
61908;BME280;47864;52.526;19.672;2023-01-25T08:20:06;102775.72;;;-0.75;100.00
61908;BME280;47864;52.526;19.672;2023-01-25T08:22:08;102777.47;;;-0.78;100.00
61908;BME280;47864;52.526;19.672;2023-01-25T08:24:10;102785.19;;;-0.71;100.00
61908;BME280;47864;52.526;19.672;2023-01-25T08:26:13;102781.69;;;-0.69;100.00
61908;BME280;47864;52.526;19.672;2023-01-25T08:28:15;102780.69;;;-0.63;100.00
61908;BME280;47864;52.526;19.672;2023-01-25T08:30:17;102787.81;;;-0.73;100.00
61908;BME280;47864;52.526;19.672;2023-01-25T08:32:19;102783.34;;;-0.65;100.00
61908;BME280;47864;52.526;19.672;2023-01-25T08:34:20;102788.59;;;-0.66;100.00
61908;BME280;47864;52.526;19.672;2023-01-25T08:36:22;102786.78;;;-0.63;100.00
61908;BME280;47864;52.526;19.672;2023-01-25T08:38:24;102786.88;;;-0.67;100.00
61908;BME280;47864;52.526;19.672;2023-01-25T08:40:26;102784.19;;;-0.64;100.00
61908;BME280;47864;52.526;19.672;2023-01-25T08:42:27;102772.03;;;-0.65;100.00
61908;BME280;47864;52.526;19.672;2023-01-25T08:44:29;102772.91;;;-0.65;100.00
61908;BME280;47864;52.526;19.672;2023-01-25T08:46:32;102770.97;;;-0.52;100.00
61908;BME280;47864;52.526;19.672;2023-01-25T08:48:34;102765.56;;;-0.42;100.00
61908;BME280;47864;52.526;19.672;2023-01-25T08:50:37;102760.13;;;-0.29;100.00
61908;BME280;47864;52.526;19.672;2023-01-25T08:52:38;102748.22;;;-0.43;100.00
61908;BME280;47864;52.526;19.672;2023-01-25T08:54:40;102767.34;;;-0.44;100.00
61908;BME280;47864;52.526;19.672;2023-01-25T08:56:42;102765.53;;;-0.40;100.00
61908;BME280;47864;52.526;19.672;2023-01-25T08:58:45;102768.22;;;-0.45;100.00
61908;BME280;47864;52.526;19.672;2023-01-25T09:00:47;102771.88;;;-0.56;100.00
61908;BME280;47864;52.526;19.672;2023-01-25T09:02:49;102768.47;;;-0.58;100.00
61908;BME280;47864;52.526;19.672;2023-01-25T09:04:51;102772.72;;;-0.53;100.00
61908;BME280;47864;52.526;19.672;2023-01-25T09:06:53;102767.31;;;-0.42;100.00
61908;BME280;47864;52.526;19.672;2023-01-25T09:08:55;102768.75;;;-0.26;100.00
61908;BME280;47864;52.526;19.672;2023-01-25T09:11:08;102758.09;;;-0.15;100.00
61908;BME280;47864;52.526;19.672;2023-01-25T09:13:09;102755.72;;;-0.26;100.00
61908;BME280;47864;52.526;19.672;2023-01-25T09:15:11;102764.16;;;-0.13;100.00
61908;BME280;47864;52.526;19.672;2023-01-25T09:17:13;102750.25;;;-0.14;100.00
61908;BME280;47864;52.526;19.672;2023-01-25T09:19:14;102759.28;;;-0.31;100.00
61908;BME280;47864;52.526;19.672;2023-01-25T09:21:17;102756.53;;;-0.24;100.00
61908;BME280;47864;52.526;19.672;2023-01-25T09:23:19;102760.88;;;-0.24;100.00
61908;BME280;47864;52.526;19.672;2023-01-25T09:25:21;102756.38;;;-0.16;100.00
61908;BME280;47864;52.526;19.672;2023-01-25T09:27:22;102752.34;;;0.12;100.00
61908;BME280;47864;52.526;19.672;2023-01-25T09:29:24;102749.94;;;0.02;100.00
61908;BME280;47864;52.526;19.672;2023-01-25T09:31:26;102755.63;;;-0.21;100.00
61908;BME280;47864;52.526;19.672;2023-01-25T09:33:33;102757.38;;;-0.22;100.00
61908;BME280;47864;52.526;19.672;2023-01-25T09:35:35;102756.34;;;-0.13;100.00
61908;BME280;47864;52.526;19.672;2023-01-25T09:37:36;102731.28;;;-0.22;100.00
61908;BME280;47864;52.526;19.672;2023-01-25T09:39:38;102742.53;;;-0.18;100.00
61908;BME280;47864;52.526;19.672;2023-01-25T09:44:27;102741.56;;;-0.14;100.00
61908;BME280;47864;52.526;19.672;2023-01-25T09:46:44;102736.16;;;-0.04;100.00
61908;BME280;47864;52.526;19.672;2023-01-25T09:54:06;102713.69;;;-0.11;100.00
61908;BME280;47864;52.526;19.672;2023-01-25T09:58:21;102723.56;;;-0.26;100.00
61908;BME280;47864;52.526;19.672;2023-01-25T10:00:33;102718.41;;;-0.29;100.00
61908;BME280;47864;52.526;19.672;2023-01-25T10:02:48;102719.22;;;-0.26;100.00
61908;BME280;47864;52.526;19.672;2023-01-25T10:04:53;102712.00;;;-0.13;100.00
61908;BME280;47864;52.526;19.672;2023-01-25T10:07:10;102710.09;;;-0.05;100.00
61908;BME280;47864;52.526;19.672;2023-01-25T10:09:20;102704.91;;;-0.07;100.00
61908;BME280;47864;52.526;19.672;2023-01-25T10:11:26;102705.56;;;0.03;100.00
61908;BME280;47864;52.526;19.672;2023-01-25T10:13:28;102698.66;;;0.00;100.00
61908;BME280;47864;52.526;19.672;2023-01-25T10:15:36;102693.41;;;0.02;100.00
61908;BME280;47864;52.526;19.672;2023-01-25T10:17:40;102683.13;;;-0.04;100.00
61908;BME280;47864;52.526;19.672;2023-01-25T10:22:00;102673.13;;;0.16;100.00
61908;BME280;47864;52.526;19.672;2023-01-25T10:26:27;102662.56;;;-0.19;100.00
61908;BME280;47864;52.526;19.672;2023-01-25T10:30:54;102655.09;;;-0.36;100.00
61908;BME280;47864;52.526;19.672;2023-01-25T10:32:59;102655.66;;;-0.22;100.00
61908;BME280;47864;52.526;19.672;2023-01-25T10:35:17;102650.16;;;-0.08;100.00
61908;BME280;47864;52.526;19.672;2023-01-25T10:37:34;102636.97;;;-0.01;100.00
61908;BME280;47864;52.526;19.672;2023-01-25T10:39:38;102641.69;;;-0.18;100.00
61908;BME280;47864;52.526;19.672;2023-01-25T10:41:46;102643.09;;;-0.03;100.00
61908;BME280;47864;52.526;19.672;2023-01-25T10:43:49;102641.19;;;0.05;100.00
61908;BME280;47864;52.526;19.672;2023-01-25T10:45:51;102646.56;;;-0.03;100.00
61908;BME280;47864;52.526;19.672;2023-01-25T10:48:00;102649.19;;;-0.04;100.00
61908;BME280;47864;52.526;19.672;2023-01-25T10:50:03;102638.72;;;-0.01;100.00